sensor_id;sensor_type;location;lat;lon;timestamp;P1;durP1;ratioP1;P2;durP2;ratioP2
17504;SDS011;8870;50.950;11.762;2023-09-18T00:04:16;1.35;;;0.88;;
17504;SDS011;8870;50.950;11.762;2023-09-18T00:09:35;2.15;;;0.77;;
17504;SDS011;8870;50.950;11.762;2023-09-18T00:15:06;1.02;;;0.90;;
17504;SDS011;8870;50.950;11.762;2023-09-18T00:20:29;0.80;;;0.80;;
17504;SDS011;8870;50.950;11.762;2023-09-18T00:26:00;1.35;;;0.70;;
17504;SDS011;8870;50.950;11.762;2023-09-18T00:31:24;1.42;;;0.80;;
17504;SDS011;8870;50.950;11.762;2023-09-18T00:36:58;0.93;;;0.82;;
17504;SDS011;8870;50.950;11.762;2023-09-18T00:42:24;0.90;;;0.73;;
17504;SDS011;8870;50.950;11.762;2023-09-18T00:47:56;1.30;;;0.80;;
17504;SDS011;8870;50.950;11.762;2023-09-18T00:53:17;2.03;;;0.77;;
17504;SDS011;8870;50.950;11.762;2023-09-18T00:58:53;0.82;;;0.80;;
17504;SDS011;8870;50.950;11.762;2023-09-18T01:04:11;1.88;;;0.75;;
17504;SDS011;8870;50.950;11.762;2023-09-18T01:09:46;2.85;;;0.80;;
17504;SDS011;8870;50.950;11.762;2023-09-18T01:15:07;0.70;;;0.70;;
17504;SDS011;8870;50.950;11.762;2023-09-18T01:20:43;0.90;;;0.80;;
17504;SDS011;8870;50.950;11.762;2023-09-18T01:26:04;0.70;;;0.70;;
17504;SDS011;8870;50.950;11.762;2023-09-18T01:31:36;0.57;;;0.57;;
17504;SDS011;8870;50.950;11.762;2023-09-18T01:36:54;0.60;;;0.60;;
17504;SDS011;8870;50.950;11.762;2023-09-18T01:42:32;1.95;;;0.70;;
17504;SDS011;8870;50.950;11.762;2023-09-18T01:47:51;0.73;;;0.70;;
17504;SDS011;8870;50.950;11.762;2023-09-18T01:53:22;1.02;;;0.80;;
17504;SDS011;8870;50.950;11.762;2023-09-18T01:58:44;1.08;;;0.70;;
17504;SDS011;8870;50.950;11.762;2023-09-18T02:04:15;0.88;;;0.80;;
17504;SDS011;8870;50.950;11.762;2023-09-18T02:09:54;1.38;;;0.80;;
17504;SDS011;8870;50.950;11.762;2023-09-18T02:15:30;0.80;;;0.80;;
17504;SDS011;8870;50.950;11.762;2023-09-18T02:20:50;0.65;;;0.60;;
17504;SDS011;8870;50.950;11.762;2023-09-18T02:26:22;2.35;;;0.80;;
17504;SDS011;8870;50.950;11.762;2023-09-18T02:31:44;1.20;;;0.95;;
17504;SDS011;8870;50.950;11.762;2023-09-18T02:37:16;2.35;;;0.80;;
17504;SDS011;8870;50.950;11.762;2023-09-18T02:42:34;2.15;;;0.70;;
17504;SDS011;8870;50.950;11.762;2023-09-18T02:48:08;2.67;;;0.80;;
17504;SDS011;8870;50.950;11.762;2023-09-18T02:53:26;0.85;;;0.80;;
17504;SDS011;8870;50.950;11.762;2023-09-18T02:58:58;0.93;;;0.65;;
17504;SDS011;8870;50.950;11.762;2023-09-18T03:04:20;1.00;;;0.80;;
17504;SDS011;8870;50.950;11.762;2023-09-18T03:09:51;0.80;;;0.80;;
17504;SDS011;8870;50.950;11.762;2023-09-18T03:15:10;1.10;;;0.85;;
17504;SDS011;8870;50.950;11.762;2023-09-18T03:20:43;1.73;;;0.80;;
17504;SDS011;8870;50.950;11.762;2023-09-18T03:26:03;1.15;;;0.82;;
17504;SDS011;8870;50.950;11.762;2023-09-18T03:31:34;1.85;;;0.80;;
17504;SDS011;8870;50.950;11.762;2023-09-18T03:36:56;0.70;;;0.70;;
17504;SDS011;8870;50.950;11.762;2023-09-18T03:42:28;0.70;;;0.70;;
17504;SDS011;8870;50.950;11.762;2023-09-18T03:47:46;0.80;;;0.80;;
17504;SDS011;8870;50.950;11.762;2023-09-18T03:53:20;0.70;;;0.70;;
17504;SDS011;8870;50.950;11.762;2023-09-18T03:58:38;1.27;;;0.70;;
17504;SDS011;8870;50.950;11.762;2023-09-18T04:04:11;0.77;;;0.77;;
17504;SDS011;8870;50.950;11.762;2023-09-18T04:09:32;1.80;;;1.00;;
17504;SDS011;8870;50.950;11.762;2023-09-18T04:15:03;1.00;;;0.90;;
17504;SDS011;8870;50.950;11.762;2023-09-18T04:20:22;0.98;;;0.80;;
17504;SDS011;8870;50.950;11.762;2023-09-18T04:25:56;1.15;;;0.80;;
17504;SDS011;8870;50.950;11.762;2023-09-18T04:31:16;0.98;;;0.80;;
17504;SDS011;8870;50.950;11.762;2023-09-18T04:36:49;1.50;;;0.90;;
17504;SDS011;8870;50.950;11.762;2023-09-18T04:42:10;3.83;;;0.98;;
17504;SDS011;8870;50.950;11.762;2023-09-18T04:47:41;2.10;;;0.77;;
17504;SDS011;8870;50.950;11.762;2023-09-18T04:53:00;2.15;;;1.00;;
17504;SDS011;8870;50.950;11.762;2023-09-18T04:58:35;1.17;;;0.90;;
17504;SDS011;8870;50.950;11.762;2023-09-18T05:03:53;1.73;;;1.00;;
17504;SDS011;8870;50.950;11.762;2023-09-18T05:09:25;0.93;;;0.90;;
17504;SDS011;8870;50.950;11.762;2023-09-18T05:14:46;0.80;;;0.80;;
17504;SDS011;8870;50.950;11.762;2023-09-18T05:20:19;2.03;;;0.90;;
17504;SDS011;8870;50.950;11.762;2023-09-18T05:25:38;0.77;;;0.77;;
17504;SDS011;8870;50.950;11.762;2023-09-18T05:31:13;0.88;;;0.80;;
17504;SDS011;8870;50.950;11.762;2023-09-18T05:36:32;1.27;;;0.90;;
17504;SDS011;8870;50.950;11.762;2023-09-18T05:42:03;1.60;;;0.60;;
17504;SDS011;8870;50.950;11.762;2023-09-18T05:47:39;0.98;;;0.90;;
17504;SDS011;8870;50.950;11.762;2023-09-18T05:52:58;1.33;;;0.80;;
17504;SDS011;8870;50.950;11.762;2023-09-18T05:58:30;1.33;;;0.70;;
17504;SDS011;8870;50.950;11.762;2023-09-18T06:03:53;1.00;;;0.88;;
17504;SDS011;8870;50.950;11.762;2023-09-18T06:09:25;0.75;;;0.70;;
17504;SDS011;8870;50.950;11.762;2023-09-18T06:14:43;0.77;;;0.70;;
17504;SDS011;8870;50.950;11.762;2023-09-18T06:20:18;1.13;;;0.80;;
17504;SDS011;8870;50.950;11.762;2023-09-18T06:25:36;0.80;;;0.68;;
17504;SDS011;8870;50.950;11.762;2023-09-18T06:31:07;2.42;;;0.80;;
17504;SDS011;8870;50.950;11.762;2023-09-18T06:36:29;0.77;;;0.77;;
17504;SDS011;8870;50.950;11.762;2023-09-18T06:42:00;0.60;;;0.60;;
17504;SDS011;8870;50.950;11.762;2023-09-18T06:47:18;0.80;;;0.70;;
17504;SDS011;8870;50.950;11.762;2023-09-18T06:52:52;1.08;;;0.70;;
17504;SDS011;8870;50.950;11.762;2023-09-18T06:58:10;4.10;;;0.80;;
17504;SDS011;8870;50.950;11.762;2023-09-18T07:03:41;2.05;;;0.70;;
17504;SDS011;8870;50.950;11.762;2023-09-18T07:09:02;0.60;;;0.60;;
17504;SDS011;8870;50.950;11.762;2023-09-18T07:14:34;1.55;;;0.70;;
17504;SDS011;8870;50.950;11.762;2023-09-18T07:19:52;0.80;;;0.73;;
17504;SDS011;8870;50.950;11.762;2023-09-18T07:25:37;0.85;;;0.70;;
17504;SDS011;8870;50.950;11.762;2023-09-18T07:31:04;2.45;;;0.70;;
17504;SDS011;8870;50.950;11.762;2023-09-18T07:36:37;0.82;;;0.82;;
17504;SDS011;8870;50.950;11.762;2023-09-18T07:42:05;1.40;;;0.70;;
17504;SDS011;8870;50.950;11.762;2023-09-18T07:47:37;2.08;;;0.80;;
17504;SDS011;8870;50.950;11.762;2023-09-18T07:52:55;1.15;;;0.80;;
17504;SDS011;8870;50.950;11.762;2023-09-18T07:58:31;0.98;;;0.90;;
17504;SDS011;8870;50.950;11.762;2023-09-18T08:04:03;0.95;;;0.70;;
17504;SDS011;8870;50.950;11.762;2023-09-18T08:09:21;1.42;;;0.82;;
17504;SDS011;8870;50.950;11.762;2023-09-18T08:14:56;1.33;;;0.80;;
17504;SDS011;8870;50.950;11.762;2023-09-18T08:20:14;0.90;;;0.60;;
17504;SDS011;8870;50.950;11.762;2023-09-18T08:25:48;2.83;;;0.90;;
17504;SDS011;8870;50.950;11.762;2023-09-18T08:31:13;1.88;;;0.80;;
17504;SDS011;8870;50.950;11.762;2023-09-18T08:36:45;1.10;;;0.73;;
17504;SDS011;8870;50.950;11.762;2023-09-18T08:42:04;1.98;;;0.80;;
17504;SDS011;8870;50.950;11.762;2023-09-18T08:47:41;2.60;;;0.85;;
17504;SDS011;8870;50.950;11.762;2023-09-18T08:53:00;2.00;;;0.85;;
17504;SDS011;8870;50.950;11.762;2023-09-18T08:58:32;2.28;;;0.80;;
17504;SDS011;8870;50.950;11.762;2023-09-18T09:03:57;5.75;;;0.80;;
17504;SDS011;8870;50.950;11.762;2023-09-18T09:09:29;3.55;;;0.80;;
17504;SDS011;8870;50.950;11.762;2023-09-18T09:15:01;2.60;;;0.90;;
17504;SDS011;8870;50.950;11.762;2023-09-18T09:20:36;3.47;;;1.08;;
17504;SDS011;8870;50.950;11.762;2023-09-18T09:26:00;3.38;;;0.80;;
17504;SDS011;8870;50.950;11.762;2023-09-18T09:31:42;1.20;;;0.75;;
17504;SDS011;8870;50.950;11.762;2023-09-18T09:37:03;1.90;;;0.75;;
17504;SDS011;8870;50.950;11.762;2023-09-18T09:42:38;2.58;;;0.90;;
17504;SDS011;8870;50.950;11.762;2023-09-18T09:48:10;2.22;;;1.00;;
17504;SDS011;8870;50.950;11.762;2023-09-18T09:59:19;4.90;;;1.20;;
17504;SDS011;8870;50.950;11.762;2023-09-18T10:04:39;3.45;;;1.20;;
17504;SDS011;8870;50.950;11.762;2023-09-18T10:10:14;5.65;;;1.20;;
17504;SDS011;8870;50.950;11.762;2023-09-18T10:15:33;8.95;;;1.30;;
17504;SDS011;8870;50.950;11.762;2023-09-18T10:21:09;2.33;;;1.20;;
17504;SDS011;8870;50.950;11.762;2023-09-18T10:26:35;6.25;;;1.30;;
17504;SDS011;8870;50.950;11.762;2023-09-18T10:32:11;3.95;;;1.23;;
17504;SDS011;8870;50.950;11.762;2023-09-18T10:37:30;2.83;;;1.30;;
17504;SDS011;8870;50.950;11.762;2023-09-18T10:43:06;3.88;;;1.20;;
17504;SDS011;8870;50.950;11.762;2023-09-18T10:48:38;2.63;;;1.15;;
17504;SDS011;8870;50.950;11.762;2023-09-18T10:53:59;3.90;;;1.13;;
17504;SDS011;8870;50.950;11.762;2023-09-18T10:59:34;4.38;;;1.30;;
17504;SDS011;8870;50.950;11.762;2023-09-18T11:05:02;6.50;;;1.20;;
17504;SDS011;8870;50.950;11.762;2023-09-18T11:10:34;3.03;;;1.48;;
17504;SDS011;8870;50.950;11.762;2023-09-18T11:15:55;5.68;;;1.15;;
17504;SDS011;8870;50.950;11.762;2023-09-18T11:21:34;6.38;;;1.50;;
17504;SDS011;8870;50.950;11.762;2023-09-18T11:26:52;3.78;;;1.30;;
17504;SDS011;8870;50.950;11.762;2023-09-18T11:32:39;3.08;;;1.20;;
17504;SDS011;8870;50.950;11.762;2023-09-18T11:38:05;2.53;;;1.08;;
17504;SDS011;8870;50.950;11.762;2023-09-18T11:43:38;2.60;;;1.08;;
17504;SDS011;8870;50.950;11.762;2023-09-18T11:49:01;4.30;;;1.27;;
17504;SDS011;8870;50.950;11.762;2023-09-18T11:54:34;2.80;;;1.10;;
17504;SDS011;8870;50.950;11.762;2023-09-18T11:59:52;4.80;;;1.40;;
17504;SDS011;8870;50.950;11.762;2023-09-18T12:05:36;3.95;;;1.00;;
17504;SDS011;8870;50.950;11.762;2023-09-18T12:10:54;6.13;;;1.60;;
17504;SDS011;8870;50.950;11.762;2023-09-18T12:16:26;3.33;;;1.25;;
17504;SDS011;8870;50.950;11.762;2023-09-18T12:21:48;2.95;;;1.35;;
17504;SDS011;8870;50.950;11.762;2023-09-18T12:27:19;2.70;;;1.30;;
17504;SDS011;8870;50.950;11.762;2023-09-18T12:32:41;3.30;;;1.13;;
17504;SDS011;8870;50.950;11.762;2023-09-18T12:38:16;1.98;;;1.10;;
17504;SDS011;8870;50.950;11.762;2023-09-18T12:43:40;4.18;;;1.30;;
17504;SDS011;8870;50.950;11.762;2023-09-18T12:49:16;3.47;;;1.40;;
17504;SDS011;8870;50.950;11.762;2023-09-18T12:54:39;3.53;;;1.50;;
17504;SDS011;8870;50.950;11.762;2023-09-18T13:00:16;2.17;;;1.17;;
17504;SDS011;8870;50.950;11.762;2023-09-18T13:05:37;3.25;;;1.42;;
17504;SDS011;8870;50.950;11.762;2023-09-18T13:11:13;4.68;;;1.30;;
17504;SDS011;8870;50.950;11.762;2023-09-18T13:16:31;3.53;;;1.38;;
17504;SDS011;8870;50.950;11.762;2023-09-18T13:22:03;2.53;;;1.02;;
17504;SDS011;8870;50.950;11.762;2023-09-18T13:27:25;3.78;;;1.10;;
17504;SDS011;8870;50.950;11.762;2023-09-18T13:33:01;2.88;;;1.05;;
17504;SDS011;8870;50.950;11.762;2023-09-18T13:38:21;2.92;;;1.10;;
17504;SDS011;8870;50.950;11.762;2023-09-18T13:43:55;3.55;;;1.20;;
17504;SDS011;8870;50.950;11.762;2023-09-18T13:49:16;3.13;;;1.20;;
17504;SDS011;8870;50.950;11.762;2023-09-18T13:54:46;3.35;;;1.20;;
17504;SDS011;8870;50.950;11.762;2023-09-18T14:00:10;3.38;;;1.10;;
17504;SDS011;8870;50.950;11.762;2023-09-18T14:05:42;2.80;;;1.00;;
17504;SDS011;8870;50.950;11.762;2023-09-18T14:11:01;2.17;;;1.00;;
17504;SDS011;8870;50.950;11.762;2023-09-18T14:16:37;2.90;;;1.10;;
17504;SDS011;8870;50.950;11.762;2023-09-18T14:21:57;2.35;;;1.13;;
17504;SDS011;8870;50.950;11.762;2023-09-18T14:27:29;2.85;;;1.20;;
17504;SDS011;8870;50.950;11.762;2023-09-18T14:32:49;2.17;;;0.90;;
17504;SDS011;8870;50.950;11.762;2023-09-18T14:38:22;2.65;;;1.00;;
17504;SDS011;8870;50.950;11.762;2023-09-18T14:43:41;2.35;;;1.13;;
17504;SDS011;8870;50.950;11.762;2023-09-18T14:49:16;1.67;;;1.00;;
17504;SDS011;8870;50.950;11.762;2023-09-18T14:54:35;1.33;;;0.70;;
17504;SDS011;8870;50.950;11.762;2023-09-18T15:00:10;2.38;;;0.90;;
17504;SDS011;8870;50.950;11.762;2023-09-18T15:05:40;1.55;;;0.80;;
17504;SDS011;8870;50.950;11.762;2023-09-18T15:11:12;3.90;;;0.80;;
17504;SDS011;8870;50.950;11.762;2023-09-18T15:16:32;1.50;;;0.70;;
17504;SDS011;8870;50.950;11.762;2023-09-18T15:22:07;2.17;;;0.80;;
17504;SDS011;8870;50.950;11.762;2023-09-18T15:27:26;2.33;;;0.80;;
17504;SDS011;8870;50.950;11.762;2023-09-18T15:32:57;1.95;;;0.90;;
17504;SDS011;8870;50.950;11.762;2023-09-18T15:38:18;1.60;;;0.73;;
17504;SDS011;8870;50.950;11.762;2023-09-18T15:43:51;1.40;;;0.60;;
17504;SDS011;8870;50.950;11.762;2023-09-18T15:49:22;1.83;;;0.73;;
17504;SDS011;8870;50.950;11.762;2023-09-18T15:54:44;1.13;;;0.60;;
17504;SDS011;8870;50.950;11.762;2023-09-18T16:00:16;1.45;;;0.70;;
17504;SDS011;8870;50.950;11.762;2023-09-18T16:05:35;1.45;;;0.57;;
17504;SDS011;8870;50.950;11.762;2023-09-18T16:11:16;1.73;;;0.60;;
17504;SDS011;8870;50.950;11.762;2023-09-18T16:16:35;2.63;;;0.82;;
17504;SDS011;8870;50.950;11.762;2023-09-18T16:22:06;2.15;;;0.60;;
17504;SDS011;8870;50.950;11.762;2023-09-18T16:27:37;0.85;;;0.50;;
17504;SDS011;8870;50.950;11.762;2023-09-18T16:33:09;1.35;;;0.70;;
17504;SDS011;8870;50.950;11.762;2023-09-18T16:38:28;1.02;;;0.70;;
17504;SDS011;8870;50.950;11.762;2023-09-18T16:44:05;2.10;;;0.63;;
17504;SDS011;8870;50.950;11.762;2023-09-18T16:49:37;2.15;;;0.70;;
17504;SDS011;8870;50.950;11.762;2023-09-18T16:54:57;2.28;;;0.73;;
17504;SDS011;8870;50.950;11.762;2023-09-18T17:00:31;2.25;;;0.80;;
17504;SDS011;8870;50.950;11.762;2023-09-18T17:05:50;1.63;;;0.75;;
17504;SDS011;8870;50.950;11.762;2023-09-18T17:11:20;2.63;;;0.90;;
17504;SDS011;8870;50.950;11.762;2023-09-18T17:16:41;2.25;;;0.75;;
17504;SDS011;8870;50.950;11.762;2023-09-18T17:22:12;1.42;;;0.60;;
17504;SDS011;8870;50.950;11.762;2023-09-18T17:27:31;2.38;;;0.80;;
17504;SDS011;8870;50.950;11.762;2023-09-18T17:33:05;3.28;;;0.80;;
17504;SDS011;8870;50.950;11.762;2023-09-18T17:38:25;2.15;;;0.80;;
17504;SDS011;8870;50.950;11.762;2023-09-18T17:43:57;1.40;;;0.68;;
17504;SDS011;8870;50.950;11.762;2023-09-18T17:49:20;1.83;;;0.70;;
17504;SDS011;8870;50.950;11.762;2023-09-18T17:54:52;2.30;;;0.70;;
17504;SDS011;8870;50.950;11.762;2023-09-18T18:00:13;1.83;;;0.80;;
17504;SDS011;8870;50.950;11.762;2023-09-18T18:05:48;1.50;;;0.77;;
17504;SDS011;8870;50.950;11.762;2023-09-18T18:11:06;1.55;;;0.60;;
17504;SDS011;8870;50.950;11.762;2023-09-18T18:16:38;1.60;;;0.70;;
17504;SDS011;8870;50.950;11.762;2023-09-18T18:21:59;2.20;;;0.80;;
17504;SDS011;8870;50.950;11.762;2023-09-18T18:27:32;1.67;;;0.60;;
17504;SDS011;8870;50.950;11.762;2023-09-18T18:32:50;1.95;;;0.70;;
17504;SDS011;8870;50.950;11.762;2023-09-18T18:38:24;3.47;;;0.70;;
17504;SDS011;8870;50.950;11.762;2023-09-18T18:44:01;1.67;;;0.65;;
17504;SDS011;8870;50.950;11.762;2023-09-18T18:49:20;1.23;;;0.70;;
17504;SDS011;8870;50.950;11.762;2023-09-18T18:54:53;2.03;;;0.80;;
17504;SDS011;8870;50.950;11.762;2023-09-18T19:00:12;2.92;;;0.70;;
17504;SDS011;8870;50.950;11.762;2023-09-18T19:05:44;1.65;;;0.70;;
17504;SDS011;8870;50.950;11.762;2023-09-18T19:11:05;2.53;;;0.70;;
17504;SDS011;8870;50.950;11.762;2023-09-18T19:16:38;1.83;;;0.60;;
17504;SDS011;8870;50.950;11.762;2023-09-18T19:21:57;1.98;;;0.80;;
17504;SDS011;8870;50.950;11.762;2023-09-18T19:27:33;1.23;;;0.63;;
17504;SDS011;8870;50.950;11.762;2023-09-18T19:32:54;1.67;;;0.80;;
17504;SDS011;8870;50.950;11.762;2023-09-18T19:38:26;0.82;;;0.60;;
17504;SDS011;8870;50.950;11.762;2023-09-18T19:43:46;1.90;;;0.57;;
17504;SDS011;8870;50.950;11.762;2023-09-18T19:49:19;2.47;;;0.60;;
17504;SDS011;8870;50.950;11.762;2023-09-18T19:54:37;3.33;;;0.70;;
17504;SDS011;8870;50.950;11.762;2023-09-18T20:00:11;1.30;;;0.50;;
17504;SDS011;8870;50.950;11.762;2023-09-18T20:05:31;1.23;;;0.55;;
17504;SDS011;8870;50.950;11.762;2023-09-18T20:11:04;1.13;;;0.68;;
17504;SDS011;8870;50.950;11.762;2023-09-18T20:16:24;1.63;;;0.73;;
17504;SDS011;8870;50.950;11.762;2023-09-18T20:22:04;1.67;;;0.60;;
17504;SDS011;8870;50.950;11.762;2023-09-18T20:27:22;2.22;;;0.70;;
17504;SDS011;8870;50.950;11.762;2023-09-18T20:32:59;1.05;;;0.60;;
17504;SDS011;8870;50.950;11.762;2023-09-18T20:38:19;1.65;;;0.65;;
17504;SDS011;8870;50.950;11.762;2023-09-18T20:43:50;1.45;;;0.60;;
17504;SDS011;8870;50.950;11.762;2023-09-18T20:49:24;0.70;;;0.50;;
17504;SDS011;8870;50.950;11.762;2023-09-18T20:54:43;1.00;;;0.60;;
17504;SDS011;8870;50.950;11.762;2023-09-18T21:00:15;0.75;;;0.65;;
17504;SDS011;8870;50.950;11.762;2023-09-18T21:05:36;1.60;;;0.60;;
17504;SDS011;8870;50.950;11.762;2023-09-18T21:11:08;1.42;;;0.60;;
17504;SDS011;8870;50.950;11.762;2023-09-18T21:16:28;1.35;;;0.50;;
17504;SDS011;8870;50.950;11.762;2023-09-18T21:22:01;1.77;;;0.68;;
17504;SDS011;8870;50.950;11.762;2023-09-18T21:27:20;1.33;;;0.70;;
17504;SDS011;8870;50.950;11.762;2023-09-18T21:32:52;1.13;;;0.50;;
17504;SDS011;8870;50.950;11.762;2023-09-18T21:38:12;1.58;;;0.63;;
17504;SDS011;8870;50.950;11.762;2023-09-18T21:43:44;2.10;;;0.75;;
17504;SDS011;8870;50.950;11.762;2023-09-18T21:49:03;1.33;;;0.60;;
17504;SDS011;8870;50.950;11.762;2023-09-18T21:54:36;2.55;;;0.85;;
17504;SDS011;8870;50.950;11.762;2023-09-18T21:59:55;1.25;;;0.55;;
17504;SDS011;8870;50.950;11.762;2023-09-18T22:05:33;1.85;;;0.70;;
17504;SDS011;8870;50.950;11.762;2023-09-18T22:11:06;1.65;;;0.70;;
17504;SDS011;8870;50.950;11.762;2023-09-18T22:16:25;4.22;;;0.70;;
17504;SDS011;8870;50.950;11.762;2023-09-18T22:21:58;0.88;;;0.65;;
17504;SDS011;8870;50.950;11.762;2023-09-18T22:27:19;4.25;;;0.80;;
17504;SDS011;8870;50.950;11.762;2023-09-18T22:32:51;1.08;;;0.60;;
17504;SDS011;8870;50.950;11.762;2023-09-18T22:38:13;1.83;;;0.70;;
17504;SDS011;8870;50.950;11.762;2023-09-18T22:55:45;2.65;;;0.60;;
17504;SDS011;8870;50.950;11.762;2023-09-18T23:01:05;1.45;;;0.60;;
17504;SDS011;8870;50.950;11.762;2023-09-18T23:06:39;1.45;;;0.70;;
17504;SDS011;8870;50.950;11.762;2023-09-18T23:11:59;1.33;;;0.70;;
17504;SDS011;8870;50.950;11.762;2023-09-18T23:17:32;1.65;;;0.70;;
17504;SDS011;8870;50.950;11.762;2023-09-18T23:23:04;1.75;;;0.80;;
17504;SDS011;8870;50.950;11.762;2023-09-18T23:28:39;1.25;;;0.80;;
17504;SDS011;8870;50.950;11.762;2023-09-18T23:34:00;1.15;;;0.60;;
17504;SDS011;8870;50.950;11.762;2023-09-18T23:39:34;1.60;;;0.80;;
17504;SDS011;8870;50.950;11.762;2023-09-18T23:45:03;0.98;;;0.70;;
17504;SDS011;8870;50.950;11.762;2023-09-18T23:50:36;2.45;;;0.90;;
17504;SDS011;8870;50.950;11.762;2023-09-18T23:55:55;2.28;;;0.85;;
